createdAt,value
2018-09-14T00:02:35.162Z,18.07
2018-09-14T00:07:28.727Z,18.06
2018-09-14T00:12:21.910Z,18.01
2018-09-14T00:17:15.090Z,17.91
2018-09-14T00:22:08.256Z,17.77
2018-09-14T00:27:01.415Z,17.83
2018-09-14T00:31:54.924Z,17.76
2018-09-14T00:36:48.047Z,17.74
2018-09-14T00:41:41.490Z,17.67
2018-09-14T00:46:34.686Z,17.55
2018-09-14T00:51:27.836Z,17.48
2018-09-14T00:56:21.331Z,17.39
2018-09-14T01:01:14.883Z,17.34
2018-09-14T01:06:08.109Z,17.37
2018-09-14T01:11:01.717Z,17.40
2018-09-14T01:15:54.840Z,17.46
2018-09-14T01:20:47.882Z,17.52
2018-09-14T01:25:41.047Z,17.52
2018-09-14T01:30:34.230Z,17.53
2018-09-14T01:35:33.513Z,17.80
2018-09-14T01:40:26.565Z,17.72
2018-09-14T01:45:19.650Z,17.79
2018-09-14T01:50:12.861Z,17.83
2018-09-14T01:55:06.370Z,17.42
2018-09-14T01:59:59.488Z,17.30
2018-09-14T02:04:54.947Z,17.63
2018-09-14T02:09:48.077Z,17.65
2018-09-14T02:14:41.324Z,17.55
2018-09-14T02:19:34.920Z,17.43
2018-09-14T02:24:28.392Z,17.48
2018-09-14T02:29:21.522Z,17.68
2018-09-14T02:34:14.777Z,17.74
2018-09-14T02:39:08.548Z,17.47
2018-09-14T02:44:01.638Z,17.19
2018-09-14T02:48:54.744Z,17.48
2018-09-14T02:53:47.966Z,17.87
2018-09-14T02:58:44.727Z,17.92
2018-09-14T03:03:37.871Z,17.88
2018-09-14T03:08:30.975Z,17.66
2018-09-14T03:13:24.064Z,17.57
2018-09-14T03:18:17.117Z,17.72
2018-09-14T03:23:10.143Z,17.74
2018-09-14T03:28:03.251Z,17.40
2018-09-14T03:32:56.356Z,17.14
2018-09-14T03:37:49.962Z,17.24
2018-09-14T03:42:43.378Z,17.35
2018-09-14T03:47:36.501Z,17.31
2018-09-14T03:52:29.691Z,17.48
2018-09-14T03:57:26.187Z,17.48
2018-09-14T04:02:19.486Z,17.61
2018-09-14T04:07:12.917Z,18.22
2018-09-14T04:12:06.522Z,18.76
2018-09-14T04:16:59.621Z,18.13
2018-09-14T04:21:52.750Z,18.52
2018-09-14T04:26:47.526Z,18.68
2018-09-14T04:31:40.768Z,18.43
2018-09-14T04:36:34.711Z,18.51
2018-09-14T04:41:27.864Z,18.69
2018-09-14T04:46:21.092Z,18.66
2018-09-14T04:51:14.614Z,18.84
2018-09-14T04:56:10.484Z,19.33
2018-09-14T05:01:10.660Z,19.35
2018-09-14T05:06:05.099Z,19.70
2018-09-14T05:11:00.744Z,19.64
2018-09-14T05:15:58.131Z,19.75
2018-09-14T05:20:52.554Z,19.80
2018-09-14T05:25:47.760Z,20.07
2018-09-14T05:30:41.581Z,20.09
2018-09-14T05:35:37.661Z,20.15
2018-09-14T05:40:31.589Z,20.29
2018-09-14T05:45:28.996Z,20.37
2018-09-14T05:50:24.493Z,20.47
2018-09-14T05:55:17.821Z,20.44
2018-09-14T06:00:11.515Z,20.65
2018-09-14T06:05:10.063Z,20.59
2018-09-14T06:10:05.198Z,20.72
2018-09-14T06:14:58.540Z,20.93
2018-09-14T06:19:52.276Z,20.95
2018-09-14T06:24:46.159Z,20.85
2018-09-14T06:29:40.002Z,21.01
2018-09-14T06:34:33.738Z,21.06
2018-09-14T06:39:28.119Z,21.03
2018-09-14T06:44:21.420Z,21.11
2018-09-14T06:49:15.813Z,21.07
2018-09-14T06:54:09.920Z,21.23
2018-09-14T06:59:03.506Z,21.37
2018-09-14T07:03:57.303Z,21.27
2018-09-14T07:08:50.454Z,21.52
2018-09-14T07:13:43.772Z,21.61
2018-09-14T07:18:38.112Z,21.58
2018-09-14T07:23:31.281Z,21.68
2018-09-14T07:28:24.457Z,21.71
2018-09-14T07:33:17.615Z,21.83
2018-09-14T07:38:11.336Z,21.89
2018-09-14T07:43:04.636Z,22.25
2018-09-14T07:47:57.709Z,22.37
2018-09-14T07:52:50.990Z,22.38
2018-09-14T07:57:44.397Z,22.41
2018-09-14T08:02:38.731Z,22.54
2018-09-14T08:07:32.201Z,22.95
2018-09-14T08:12:25.619Z,22.69
2018-09-14T08:17:18.763Z,22.80
2018-09-14T08:22:13.935Z,22.58
2018-09-14T08:27:07.439Z,22.95
2018-09-14T08:32:01.315Z,22.93
2018-09-14T08:36:54.555Z,22.73
2018-09-14T08:41:47.937Z,22.80
2018-09-14T08:46:41.360Z,22.96
2018-09-14T08:51:34.649Z,23.06
2018-09-14T08:56:28.743Z,23.16
2018-09-14T09:01:21.995Z,23.32
2018-09-14T09:06:15.306Z,23.46
2018-09-14T09:11:08.689Z,23.57
2018-09-14T09:16:02.500Z,23.65
2018-09-14T09:20:56.287Z,23.41
2018-09-14T09:25:49.370Z,23.82
2018-09-14T09:30:42.655Z,24.25
2018-09-14T09:35:35.889Z,24.07
2018-09-14T09:40:29.661Z,24.23
2018-09-14T09:45:22.906Z,24.27
2018-09-14T09:50:16.940Z,24.15
2018-09-14T09:55:10.167Z,24.60
2018-09-14T10:00:03.674Z,24.94
2018-09-14T10:05:02.670Z,24.72
2018-09-14T10:09:56.399Z,24.60
2018-09-14T10:14:50.224Z,24.96
2018-09-14T10:19:43.995Z,24.67
2018-09-14T10:24:37.192Z,24.51
2018-09-14T10:29:33.095Z,24.90
2018-09-14T10:34:27.070Z,24.72
2018-09-14T10:39:23.372Z,24.37
2018-09-14T10:44:18.173Z,24.10
2018-09-14T10:49:13.523Z,24.59
2018-09-14T10:54:06.885Z,24.93
2018-09-14T10:59:00.162Z,25.35
2018-09-14T11:03:53.226Z,25.06
2018-09-14T11:08:47.350Z,24.84
2018-09-14T11:13:40.812Z,25.27
2018-09-14T11:18:34.479Z,25.70
2018-09-14T11:23:27.937Z,25.68
2018-09-14T11:28:21.134Z,25.51
2018-09-14T11:33:14.178Z,25.62
2018-09-14T11:38:07.572Z,25.41
2018-09-14T11:43:00.753Z,25.57
2018-09-14T11:47:55.336Z,25.98
2018-09-14T11:52:48.622Z,26.33
2018-09-14T11:57:42.157Z,26.27
2018-09-14T12:02:35.561Z,25.52
2018-09-14T12:07:32.206Z,25.57
2018-09-14T12:12:25.379Z,25.70
2018-09-14T12:17:18.523Z,25.81
2018-09-14T12:22:12.227Z,25.96
2018-09-14T12:27:06.332Z,25.97
2018-09-14T12:31:59.483Z,25.94
2018-09-14T12:36:52.801Z,25.93
2018-09-14T12:41:46.303Z,25.84
2018-09-14T12:46:39.581Z,25.92
2018-09-14T12:51:33.656Z,26.10
2018-09-14T12:56:26.792Z,25.72
2018-09-14T13:01:20.206Z,25.43
2018-09-14T13:06:13.602Z,25.41
2018-09-14T13:11:06.903Z,25.44
2018-09-14T13:16:00.276Z,25.44
2018-09-14T13:20:53.457Z,25.26
2018-09-14T13:25:46.538Z,25.35
2018-09-14T13:30:39.790Z,25.42
2018-09-14T13:35:32.830Z,25.70
2018-09-14T13:40:31.315Z,25.73
2018-09-14T13:45:25.664Z,25.60
2018-09-14T13:50:18.783Z,25.62
2018-09-14T13:55:12.085Z,25.43
2018-09-14T14:00:05.812Z,25.56
2018-09-14T14:04:59.015Z,25.50
2018-09-14T14:09:52.413Z,25.54
2018-09-14T14:14:45.456Z,25.54
2018-09-14T14:19:38.865Z,25.42
2018-09-14T14:24:32.423Z,25.36
2018-09-14T14:29:25.559Z,25.37
2018-09-14T14:34:19.343Z,25.40
2018-09-14T14:39:13.981Z,25.41
2018-09-14T14:44:07.552Z,25.44
2018-09-14T14:49:00.642Z,25.35
2018-09-14T14:53:54.239Z,25.32
2018-09-14T14:58:47.876Z,25.32
2018-09-14T15:03:40.996Z,25.23
2018-09-14T15:08:34.131Z,25.22
2018-09-14T15:13:27.605Z,25.08
2018-09-14T15:18:20.680Z,24.93
2018-09-14T15:23:14.895Z,24.94
2018-09-14T15:28:08.396Z,25.23
2018-09-14T15:38:17.987Z,24.82
2018-09-14T15:43:11.265Z,24.65
2018-09-14T15:48:04.971Z,24.50
2018-09-14T15:52:58.154Z,24.35
2018-09-14T15:57:51.349Z,24.29
2018-09-14T16:02:45.151Z,24.09
2018-09-14T16:07:38.274Z,23.91
2018-09-14T16:12:31.561Z,23.72
2018-09-14T16:17:24.547Z,23.64
2018-09-14T16:22:18.423Z,23.47
2018-09-14T16:27:11.539Z,23.39
2018-09-14T16:32:05.653Z,23.17
2018-09-14T16:36:59.036Z,22.98
2018-09-14T16:41:52.114Z,22.64
2018-09-14T16:46:45.980Z,22.30
2018-09-14T16:51:39.407Z,22.07
2018-09-14T16:56:32.968Z,21.92
2018-09-14T17:01:26.422Z,21.75
2018-09-14T17:06:19.907Z,21.59
2018-09-14T17:11:14.367Z,21.40
2018-09-14T17:16:08.673Z,21.40
2018-09-14T17:21:02.473Z,21.21
2018-09-14T17:25:55.735Z,21.04
2018-09-14T17:30:49.103Z,20.77
2018-09-14T17:35:43.285Z,20.65
2018-09-14T17:40:36.299Z,20.55
2018-09-14T17:45:29.256Z,20.61
2018-09-14T17:50:22.533Z,20.72
2018-09-14T17:55:16.205Z,20.62
2018-09-14T18:00:10.357Z,20.47
2018-09-14T18:05:05.050Z,20.24
2018-09-14T18:09:58.126Z,20.18
2018-09-14T18:14:51.230Z,20.12
2018-09-14T18:19:44.210Z,20.06
2018-09-14T18:24:37.587Z,20.01
2018-09-14T18:29:31.647Z,20.11
2018-09-14T18:34:25.067Z,19.93
2018-09-14T18:39:18.204Z,20.02
2018-09-14T18:44:11.375Z,20.11
2018-09-14T18:49:04.744Z,19.91
2018-09-14T18:53:57.965Z,19.70
2018-09-14T18:58:51.238Z,19.66
2018-09-14T19:03:46.182Z,19.67
2018-09-14T19:08:39.516Z,19.97
2018-09-14T19:13:32.985Z,20.16
2018-09-14T19:18:30.979Z,20.14
2018-09-14T19:23:24.359Z,20.13
2018-09-14T19:28:17.538Z,20.18
2018-09-14T19:33:10.705Z,20.11
2018-09-14T19:38:03.921Z,20.30
2018-09-14T19:42:56.994Z,20.26
2018-09-14T19:47:50.174Z,20.19
2018-09-14T19:52:43.335Z,20.20
2018-09-14T19:57:36.669Z,20.31
2018-09-14T20:02:29.723Z,20.41
2018-09-14T20:07:22.845Z,20.29
2018-09-14T20:12:15.929Z,20.31
2018-09-14T20:17:09.051Z,20.31
2018-09-14T20:22:02.326Z,20.35
2018-09-14T20:26:55.365Z,20.19
2018-09-14T20:31:48.401Z,20.26
2018-09-14T20:36:41.561Z,20.29
2018-09-14T20:41:34.701Z,20.39
2018-09-14T20:46:28.007Z,20.45
2018-09-14T20:51:21.427Z,20.47
2018-09-14T20:56:14.861Z,20.34
2018-09-14T21:01:08.602Z,20.25
2018-09-14T21:06:01.683Z,20.17
2018-09-14T21:10:54.850Z,20.25
2018-09-14T21:15:47.883Z,20.24
2018-09-14T21:20:41.307Z,20.22
2018-09-14T21:25:34.941Z,20.21
2018-09-14T21:30:28.355Z,20.27
2018-09-14T21:35:21.368Z,20.25
2018-09-14T21:40:14.508Z,20.49
2018-09-14T21:45:07.674Z,20.50
2018-09-14T21:50:01.082Z,20.51
2018-09-14T21:54:54.195Z,20.61
2018-09-14T21:59:47.310Z,20.52
2018-09-14T22:04:40.360Z,20.50
2018-09-14T22:09:33.673Z,20.58
2018-09-14T22:14:26.707Z,20.55
2018-09-14T22:19:19.657Z,20.56
2018-09-14T22:24:12.746Z,20.44
2018-09-14T22:29:06.403Z,20.38
2018-09-14T22:34:00.402Z,20.37
2018-09-14T22:38:53.420Z,20.44
2018-09-14T22:43:47.131Z,20.31
2018-09-14T22:48:40.046Z,20.24
2018-09-14T22:53:34.255Z,20.05
2018-09-14T22:58:27.687Z,19.87
2018-09-14T23:03:20.749Z,19.84
2018-09-14T23:08:14.098Z,19.73
2018-09-14T23:13:07.118Z,19.85
2018-09-14T23:18:00.414Z,19.80
2018-09-14T23:22:53.567Z,19.85
2018-09-14T23:27:46.637Z,19.80
2018-09-14T23:32:40.198Z,19.85
2018-09-14T23:37:33.218Z,19.70
2018-09-14T23:42:26.279Z,19.76
2018-09-14T23:47:19.326Z,19.70
2018-09-14T23:52:12.601Z,19.66
2018-09-14T23:57:05.715Z,19.66
